Celle, Germany

12:51 AM CET on February 08, 2016 (GMT +0100)
Celle Army | | Change Station
CLOSE
Current Station
Airport
Location: Celle,
Elevation: 171 ft
Nearby Weather Stations

Elev 171 ft 52.60 °N, 10.03 °E | Updated 31 minutes ago

Partly Cloudy
Partly Cloudy
43 °F
Feels Like 38 °F
N
9
Wind Variable Wind from South

Today
High -- | Low -- °F
--% Chance of Precip.
Yesterday
High -- | Low -- °F
Precip. -- in
Pressure 29.56 in
Visibility 6.2 miles
Clouds Few 30000 ft
Windchill 38 °F
Dew Point 32 °F
Humidity 66%
Rainfall 0.00 in
Snow Depth Not available.
7:50 AM 5:17 PM
Waning Crescent, 1% visible
METAR ETHC 072320Z 18008KT 9999 FEW300 06/00 Q1001 BLU+
Pressure 29.56 in
Visibility 6.2 miles
Clouds Few 30000 ft
Windchill 38 °F
Dew Point 32 °F
Humidity 66%
Rainfall 0.00 in
Snow Depth Not available.
7:50 AM 5:17 PM
Waning Crescent, 1% visible
METAR ETHC 072320Z 18008KT 9999 FEW300 06/00 Q1001 BLU+

10-Day Weather Forecast

Almanac

Astronomy

Feb. 08, 2016 Rise Set
Actual Time
Civil Twilight
Nautical Twilight
Astronomical Twilight
Moon
Length of Visible Light
Length of Day
Tomorrow will be .
, % of the Moon is Illuminated

Today's Extremes

Country Highs Country Lows

Community

WunderPhotos

Upload Photos

1,891,329 photos uploaded!

WunderBlog® & News

Nearby

Air Quality

  Air Quality AQ Index Pollutant
Not available.

Snow Depth

Station Depth Elevation

Earthquake Activity

City Distance Mag. Time & Date
Minimum magnitude displayed is 2.5.

Coastal Water Temperatures

Place Temperature

Stations

Nearby Weather Stations

Station Location Temp. Windchill Dew Point Humidity Wind Precip. Elev Updated Type